Time;durP1;ratioP1;P1;durP2;ratioP2;P2;SDS_P1;SDS_P2;PMS_P1;PMS_P2;Temp;Humidity;BMP_temperature;BMP_pressure;BME280_temperature;BME280_humidity;BME280_pressure;Samples;Min_cycle;Max_cycle;Signal;HPM_P1;HPM_P2
2021/10/14 00:01:01;;;;;;;11.65;9.48;;;14.20;63.70;;;;;;5032039;28;20341;-66
2021/10/14 00:03:27;;;;;;;10.38;8.38;;;14.10;63.80;;;;;;5031635;28;20037;-66
2021/10/14 00:05:52;;;;;;;12.70;9.13;;;14.10;64.30;;;;;;5014930;28;20033;-66
2021/10/14 00:08:18;;;;;;;13.10;9.80;;;14.10;64.40;;;;;;5034270;28;20068;-66
2021/10/14 00:10:43;;;;;;;12.70;9.68;;;14.10;64.60;;;;;;5033711;28;20032;-66
2021/10/14 00:13:09;;;;;;;12.80;9.40;;;14.10;65.00;;;;;;5035497;28;20068;-66
2021/10/14 00:15:34;;;;;;;14.77;9.98;;;14.10;65.50;;;;;;5033379;28;20033;-66
2021/10/14 00:18:00;;;;;;;14.68;9.57;;;14.10;65.70;;;;;;5034600;28;20038;-66
2021/10/14 00:20:27;;;;;;;14.25;9.13;;;14.10;65.00;;;;;;5033634;28;20474;-66
2021/10/14 00:22:53;;;;;;;13.00;9.38;;;14.00;64.90;;;;;;5034914;28;20095;-66
2021/10/14 00:25:19;;;;;;;13.60;8.55;;;14.00;65.20;;;;;;5032747;28;20038;-66
2021/10/14 00:27:46;;;;;;;16.17;9.20;;;14.00;65.30;;;;;;5034611;28;20415;-66
2021/10/14 00:30:12;;;;;;;10.02;8.18;;;13.90;65.60;;;;;;5033434;28;20041;-66
2021/10/14 00:32:38;;;;;;;9.40;7.97;;;13.90;65.80;;;;;;5033708;28;20415;-65
2021/10/14 00:35:04;;;;;;;11.93;9.07;;;14.00;65.70;;;;;;5031652;28;20033;-67
2021/10/14 00:37:30;;;;;;;13.65;8.98;;;13.90;65.90;;;;;;5033659;28;20057;-66
2021/10/14 00:39:56;;;;;;;11.70;8.25;;;13.90;66.00;;;;;;5032939;28;20041;-66
2021/10/14 00:42:22;;;;;;;10.43;7.38;;;13.90;66.20;;;;;;5034567;28;20501;-66
2021/10/14 00:44:50;;;;;;;11.55;7.60;;;13.90;66.30;;;;;;5032954;28;20059;-66
2021/10/14 00:47:21;;;;;;;11.43;7.95;;;13.90;66.30;;;;;;5034713;28;20116;-66
2021/10/14 00:49:47;;;;;;;9.77;7.13;;;13.80;66.50;;;;;;5031823;28;20033;-66
2021/10/14 00:52:13;;;;;;;13.77;7.63;;;13.90;66.70;;;;;;5033255;28;20038;-66
2021/10/14 00:54:39;;;;;;;12.63;7.68;;;13.90;66.90;;;;;;5032581;28;20044;-66
2021/10/14 00:57:05;;;;;;;9.20;6.80;;;13.90;67.10;;;;;;5032522;28;20391;-66
2021/10/14 00:59:31;;;;;;;9.55;7.70;;;13.90;67.30;;;;;;5030888;28;20052;-66
2021/10/14 01:01:57;;;;;;;12.73;8.38;;;13.90;67.30;;;;;;5034038;28;20079;-66
2021/10/14 01:04:23;;;;;;;11.05;7.72;;;13.90;67.30;;;;;;5031973;28;20061;-66
2021/10/14 01:06:48;;;;;;;11.10;7.18;;;13.80;67.50;;;;;;5032188;28;20550;-66
2021/10/14 01:09:15;;;;;;;7.63;5.93;;;13.80;67.60;;;;;;5031931;28;20073;-66
2021/10/14 01:11:40;;;;;;;11.45;6.40;;;13.80;67.60;;;;;;5033395;28;20542;-66
2021/10/14 01:14:06;;;;;;;10.38;7.53;;;13.80;67.80;;;;;;5032616;28;20117;-66
2021/10/14 01:16:39;;;;;;;9.07;6.15;;;13.80;67.50;;;;;;5031926;28;20077;-66
2021/10/14 01:19:05;;;;;;;9.23;6.63;;;13.80;68.00;;;;;;5025644;28;20045;-66
2021/10/14 01:21:32;;;;;;;9.60;6.63;;;13.80;68.00;;;;;;5031678;28;20044;-66
2021/10/14 01:23:59;;;;;;;8.05;6.47;;;13.70;68.20;;;;;;5014149;28;20040;-66
2021/10/14 01:26:25;;;;;;;14.20;6.22;;;13.70;68.50;;;;;;5029160;28;20597;-66
2021/10/14 01:28:51;;;;;;;10.07;6.70;;;13.70;68.80;;;;;;5027529;28;20038;-66
2021/10/14 01:31:17;;;;;;;12.55;6.97;;;13.70;68.90;;;;;;5032862;28;20034;-66
2021/10/14 01:33:42;;;;;;;9.02;6.25;;;13.70;69.20;;;;;;5033545;28;20050;-66
2021/10/14 01:36:08;;;;;;;12.88;6.18;;;13.70;69.30;;;;;;5030160;28;20396;-66
2021/10/14 01:38:33;;;;;;;8.68;6.15;;;13.60;69.20;;;;;;5033194;28;20083;-66
2021/10/14 01:40:59;;;;;;;10.48;6.43;;;13.70;69.20;;;;;;5032296;28;20483;-66
2021/10/14 01:43:25;;;;;;;12.23;6.18;;;13.70;69.40;;;;;;5033194;28;20061;-66
2021/10/14 01:45:50;;;;;;;10.27;6.60;;;13.70;69.70;;;;;;5032465;28;20030;-66
2021/10/14 01:48:17;;;;;;;9.82;6.85;;;13.60;70.20;;;;;;5033109;28;20104;-66
2021/10/14 01:50:42;;;;;;;8.45;6.45;;;13.60;70.50;;;;;;5032318;28;20399;-66
2021/10/14 01:53:08;;;;;;;8.50;7.32;;;13.60;70.50;;;;;;5030593;28;20042;-66
2021/10/14 01:55:34;;;;;;;14.73;6.95;;;13.60;70.70;;;;;;5031446;28;20038;-66
2021/10/14 01:58:00;;;;;;;8.77;7.45;;;13.60;71.10;;;;;;5033796;28;20557;-66
2021/10/14 02:00:26;;;;;;;10.35;7.07;;;13.50;71.30;;;;;;5031311;28;20067;-66
2021/10/14 02:02:51;;;;;;;10.43;7.18;;;13.60;71.80;;;;;;5029112;28;20133;-66
2021/10/14 02:05:17;;;;;;;8.52;6.78;;;13.60;71.90;;;;;;5030489;28;20088;-66
2021/10/14 02:07:42;;;;;;;12.38;8.23;;;13.50;72.40;;;;;;5031502;28;20045;-66
2021/10/14 02:10:08;;;;;;;10.35;6.47;;;13.50;72.90;;;;;;5031089;28;20064;-68
2021/10/14 02:12:34;;;;;;;11.52;6.80;;;13.40;72.90;;;;;;5032926;28;20088;-66
2021/10/14 02:15:00;;;;;;;9.65;6.95;;;13.50;73.00;;;;;;5031555;28;20053;-66
2021/10/14 02:17:26;;;;;;;10.60;7.78;;;13.40;73.40;;;;;;5032635;28;20045;-66
2021/10/14 02:19:52;;;;;;;12.93;7.38;;;13.40;74.30;;;;;;5031028;28;20474;-66
2021/10/14 02:22:18;;;;;;;8.82;6.63;;;;;;;;;;5030323;28;20042;-66
2021/10/14 02:24:43;;;;;;;10.30;6.97;;;13.20;50.50;;;;;;5026548;28;20483;-66
2021/10/14 02:27:09;;;;;;;12.50;6.72;;;13.40;51.00;;;;;;5028512;28;20069;-66
2021/10/14 02:29:34;;;;;;;9.60;6.45;;;13.40;50.90;;;;;;5031381;28;20046;-66
2021/10/14 02:32:00;;;;;;;8.20;6.68;;;13.40;50.60;;;;;;5032107;28;20065;-66
2021/10/14 02:34:26;;;;;;;9.05;6.53;;;13.40;50.90;;;;;;5012795;28;20037;-67
2021/10/14 02:36:51;;;;;;;9.23;6.40;;;13.40;50.90;;;;;;5030601;28;20052;-66
2021/10/14 02:39:17;;;;;;;8.18;5.45;;;13.40;51.00;;;;;;5007349;28;20125;-66
2021/10/14 02:41:42;;;;;;;11.10;6.80;;;13.40;50.90;;;;;;5030703;28;20057;-66
2021/10/14 02:44:08;;;;;;;8.20;5.72;;;13.40;50.90;;;;;;5031630;28;20112;-66
2021/10/14 02:46:33;;;;;;;9.70;7.28;;;13.40;51.00;;;;;;5030410;28;20505;-66
2021/10/14 02:48:59;;;;;;;10.60;7.25;;;13.40;51.20;;;;;;5031709;28;20099;-66
2021/10/14 02:51:25;;;;;;;7.85;6.40;;;13.40;51.20;;;;;;5028719;28;20041;-66
2021/10/14 02:53:50;;;;;;;9.23;5.97;;;13.40;51.50;;;;;;5030678;28;20440;-66
2021/10/14 02:56:16;;;;;;;13.02;6.65;;;13.40;51.50;;;;;;5030434;28;20056;-66
2021/10/14 02:58:41;;;;;;;8.68;6.07;;;13.40;51.50;;;;;;5013751;28;20403;-66
2021/10/14 03:01:07;;;;;;;8.73;6.00;;;13.40;51.60;;;;;;5030239;28;20037;-66
2021/10/14 03:03:33;;;;;;;8.48;6.20;;;13.30;51.60;;;;;;5032010;28;20428;-66
2021/10/14 03:05:59;;;;;;;6.90;5.53;;;13.30;50.70;;;;;;5030075;28;20037;-66
2021/10/14 03:08:25;;;;;;;11.85;5.65;;;13.40;51.10;;;;;;5013938;28;20403;-66
2021/10/14 03:10:50;;;;;;;10.75;6.15;;;13.40;51.00;;;;;;5027199;28;20083;-66
2021/10/14 03:13:16;;;;;;;9.48;6.00;;;13.30;50.60;;;;;;5031261;28;20410;-66
2021/10/14 03:15:42;;;;;;;9.85;5.93;;;13.40;50.80;;;;;;5031229;28;20438;-66
2021/10/14 03:18:07;;;;;;;6.55;5.22;;;13.30;50.70;;;;;;5030656;28;20046;-66
2021/10/14 03:20:33;;;;;;;8.75;6.32;;;13.40;51.00;;;;;;5029765;28;20038;-66
2021/10/14 03:22:59;;;;;;;10.80;5.63;;;13.30;51.00;;;;;;5031447;28;20527;-66
2021/10/14 03:25:24;;;;;;;8.75;6.13;;;13.20;51.30;;;;;;5028298;28;20062;-66
2021/10/14 03:27:50;;;;;;;9.82;7.07;;;13.20;51.30;;;;;;5030563;28;20045;-66
2021/10/14 03:30:16;;;;;;;9.88;6.38;;;13.20;51.70;;;;;;5030640;28;20442;-66
2021/10/14 03:32:41;;;;;;;11.43;6.80;;;13.20;51.90;;;;;;5030814;28;20147;-66
2021/10/14 03:35:07;;;;;;;9.35;5.75;;;13.30;52.00;;;;;;5028267;28;20080;-66
2021/10/14 03:37:33;;;;;;;9.77;6.07;;;13.20;51.90;;;;;;5029766;28;20594;-66
2021/10/14 03:39:58;;;;;;;10.00;6.13;;;13.20;52.20;;;;;;5030896;28;20060;-66
2021/10/14 03:42:24;;;;;;;10.35;5.85;;;13.20;52.30;;;;;;5031120;28;20068;-66
2021/10/14 03:44:49;;;;;;;6.95;5.80;;;13.20;52.40;;;;;;5029916;28;20525;-66
2021/10/14 03:47:15;;;;;;;9.88;5.72;;;13.20;52.50;;;;;;5030307;28;20040;-66
2021/10/14 03:49:41;;;;;;;8.20;6.25;;;13.20;52.90;;;;;;5031548;28;20184;-66
2021/10/14 03:52:06;;;;;;;10.23;6.22;;;13.10;53.00;;;;;;5010587;28;20144;-66
2021/10/14 03:54:32;;;;;;;10.40;6.75;;;13.10;53.40;;;;;;5011235;28;20120;-66
2021/10/14 03:56:57;;;;;;;10.23;6.28;;;13.20;53.50;;;;;;5027737;28;20044;-66
2021/10/14 03:59:23;;;;;;;8.77;5.95;;;13.10;53.70;;;;;;5031660;28;20251;-66
2021/10/14 04:01:49;;;;;;;9.57;6.40;;;13.10;53.90;;;;;;5030511;28;20390;-66
2021/10/14 04:04:15;;;;;;;8.32;6.38;;;13.10;53.80;;;;;;5029202;28;20046;-66
2021/10/14 04:06:40;;;;;;;9.98;6.85;;;13.10;54.20;;;;;;5029181;28;20431;-66
2021/10/14 04:09:06;;;;;;;10.52;6.80;;;13.10;54.80;;;;;;5028152;28;20367;-66
2021/10/14 04:11:31;;;;;;;9.95;6.93;;;13.10;54.90;;;;;;5030631;28;20041;-66
2021/10/14 04:13:57;;;;;;;10.48;7.28;;;13.10;55.70;;;;;;5005918;28;20519;-66
2021/10/14 04:16:22;;;;;;;10.73;6.80;;;13.10;56.20;;;;;;5029566;28;20147;-66
2021/10/14 04:18:48;;;;;;;9.98;7.50;;;13.10;56.30;;;;;;5012458;28;20487;-66
2021/10/14 04:21:14;;;;;;;10.07;7.45;;;13.10;56.80;;;;;;5012556;28;20041;-66
2021/10/14 04:23:44;;;;;;;12.07;8.18;;;13.00;57.40;;;;;;5030459;28;20053;-66
2021/10/14 04:26:11;;;;;;;11.02;8.00;;;13.00;58.00;;;;;;5014651;28;20025;-66
2021/10/14 04:28:37;;;;;;;9.40;7.40;;;13.00;59.50;;;;;;5026924;28;20050;-66
2021/10/14 04:31:03;;;;;;;12.23;7.65;;;13.00;59.80;;;;;;5033277;28;20037;-66
2021/10/14 04:33:30;;;;;;;10.38;6.80;;;13.00;64.40;;;;;;5015600;28;20042;-66
2021/10/14 04:36:05;;;;;;;8.90;7.47;;;13.00;67.00;;;;;;5032532;28;20030;-66
2021/10/14 04:38:31;;;;;;;9.35;7.18;;;13.00;68.30;;;;;;5033546;28;20033;-66
2021/10/14 04:40:57;;;;;;;17.38;7.80;;;13.00;68.40;;;;;;5032712;28;20072;-66
2021/10/14 04:43:23;;;;;;;12.40;6.75;;;13.00;67.90;;;;;;5033059;28;20033;-66
2021/10/14 04:45:50;;;;;;;10.10;7.28;;;13.00;71.60;;;;;;5026438;28;20139;-66
2021/10/14 04:48:16;;;;;;;12.02;6.90;;;13.00;62.90;;;;;;5034325;28;20034;-66
2021/10/14 04:50:42;;;;;;;11.55;7.10;;;13.00;65.70;;;;;;5032359;28;20080;-66
2021/10/14 04:53:07;;;;;;;9.48;6.43;;;12.90;66.30;;;;;;5032936;28;20526;-65
2021/10/14 04:55:33;;;;;;;9.45;6.32;;;12.90;60.90;;;;;;5032492;28;20056;-66
2021/10/14 04:58:01;;;;;;;7.85;6.07;;;12.90;61.10;;;;;;5032321;28;20049;-66
2021/10/14 05:00:27;;;;;;;9.23;7.05;;;12.80;61.60;;;;;;5033600;28;20033;-66
2021/10/14 05:02:52;;;;;;;7.55;5.63;;;12.80;63.30;;;;;;5033309;28;20044;-66
2021/10/14 05:05:18;;;;;;;10.02;6.25;;;12.80;61.70;;;;;;5015916;28;20029;-66
2021/10/14 05:07:44;;;;;;;10.68;5.80;;;12.80;61.30;;;;;;5031783;28;20115;-66
2021/10/14 05:10:09;;;;;;;13.05;6.05;;;12.80;61.60;;;;;;5014583;28;20417;-66
2021/10/14 05:12:36;;;;;;;8.40;5.75;;;12.80;62.80;;;;;;5032393;28;20037;-66
2021/10/14 05:15:06;;;;;;;9.13;5.78;;;12.80;64.60;;;;;;5034102;28;20105;-65
2021/10/14 05:17:32;;;;;;;10.70;5.55;;;12.80;61.90;;;;;;5031657;28;20132;-66
2021/10/14 05:19:58;;;;;;;6.45;5.00;;;12.80;61.00;;;;;;5031952;28;20121;-66
2021/10/14 05:22:23;;;;;;;9.60;5.60;;;12.70;62.90;;;;;;5031563;28;20124;-65
2021/10/14 05:24:49;;;;;;;10.02;4.85;;;12.70;62.10;;;;;;5031285;28;20487;-66
2021/10/14 05:27:14;;;;;;;11.85;5.70;;;12.60;54.00;;;;;;5032456;28;20042;-66
2021/10/14 05:29:40;;;;;;;9.55;5.50;;;12.70;52.40;;;;;;5032404;28;20046;-66
2021/10/14 05:32:06;;;;;;;8.18;4.90;;;12.70;52.10;;;;;;5031527;28;20140;-66
2021/10/14 05:34:31;;;;;;;9.77;4.88;;;12.70;51.80;;;;;;5031284;28;20510;-66
2021/10/14 05:36:57;;;;;;;8.93;5.00;;;12.70;51.60;;;;;;5030694;28;20068;-66
2021/10/14 05:39:22;;;;;;;11.70;5.30;;;12.60;51.70;;;;;;5031787;28;20033;-66
2021/10/14 05:41:48;;;;;;;8.55;5.25;;;12.60;51.40;;;;;;5012927;28;20475;-66
2021/10/14 05:44:13;;;;;;;6.43;4.68;;;12.70;51.60;;;;;;5032986;28;20034;-65
2021/10/14 05:46:39;;;;;;;9.50;4.28;;;12.70;51.40;;;;;;5031459;28;20087;-66
2021/10/14 05:49:04;;;;;;;8.57;4.22;;;12.60;51.20;;;;;;5012334;28;20379;-66
2021/10/14 05:51:30;;;;;;;7.93;4.85;;;12.70;51.00;;;;;;5031291;28;20336;-66
2021/10/14 05:53:56;;;;;;;8.52;4.55;;;12.60;50.70;;;;;;5031418;28;20084;-67
2021/10/14 05:56:24;;;;;;;8.90;4.68;;;12.70;50.50;;;;;;5020745;28;20033;-67
2021/10/14 05:58:50;;;;;;;6.95;4.78;;;12.70;50.50;;;;;;5030166;28;20041;-66
2021/10/14 06:01:16;;;;;;;7.13;4.40;;;12.70;50.50;;;;;;5031265;28;20045;-66
2021/10/14 06:03:42;;;;;;;7.18;5.25;;;12.70;50.30;;;;;;5033046;28;20045;-66
2021/10/14 06:06:07;;;;;;;6.85;4.28;;;12.70;50.60;;;;;;5031630;28;20487;-66
2021/10/14 06:08:33;;;;;;;4.68;3.67;;;12.60;50.00;;;;;;5016669;28;20100;-66
2021/10/14 06:10:59;;;;;;;7.53;4.65;;;12.70;50.70;;;;;;5029579;28;20033;-66
2021/10/14 06:13:25;;;;;;;7.10;4.18;;;12.70;50.00;;;;;;5031073;28;20037;-66
2021/10/14 06:15:50;;;;;;;9.70;5.18;;;12.70;50.00;;;;;;5029913;28;20041;-66
2021/10/14 06:18:16;;;;;;;10.43;6.28;;;12.70;50.10;;;;;;5029044;28;20052;-66
2021/10/14 06:20:41;;;;;;;11.18;6.47;;;12.80;50.30;;;;;;5031798;28;20483;-66
2021/10/14 06:23:07;;;;;;;10.82;6.72;;;12.70;50.80;;;;;;5031374;28;20029;-66
2021/10/14 06:25:33;;;;;;;18.23;6.78;;;12.70;51.10;;;;;;5028532;28;20057;-66
2021/10/14 06:27:59;;;;;;;11.90;6.63;;;12.70;51.00;;;;;;5030378;28;20088;-66
2021/10/14 06:30:24;;;;;;;10.65;7.05;;;12.70;51.30;;;;;;5028767;28;20422;-66
2021/10/14 06:32:50;;;;;;;12.80;7.10;;;12.70;51.20;;;;;;5030795;28;20140;-66
2021/10/14 06:35:16;;;;;;;13.50;7.18;;;12.60;51.10;;;;;;5029306;28;20029;-66
2021/10/14 06:37:41;;;;;;;11.07;6.72;;;12.60;50.80;;;;;;5030889;28;20038;-66
2021/10/14 06:40:07;;;;;;;11.13;6.40;;;12.60;50.00;;;;;;5032443;28;20472;-66
2021/10/14 06:42:33;;;;;;;15.57;7.03;;;12.70;50.80;;;;;;5030658;28;20459;-66
2021/10/14 06:44:59;;;;;;;10.38;6.40;;;12.70;50.00;;;;;;5029021;28;20144;-66
2021/10/14 06:47:24;;;;;;;11.90;6.20;;;12.70;50.40;;;;;;5027625;28;20052;-65
2021/10/14 06:49:50;;;;;;;13.15;6.03;;;12.60;50.20;;;;;;5031101;28;20034;-65
2021/10/14 06:52:16;;;;;;;8.73;5.70;;;12.70;50.00;;;;;;5028887;28;20128;-65
2021/10/14 06:54:43;;;;;;;11.75;6.78;;;12.80;50.10;;;;;;5009042;28;20183;-65
2021/10/14 06:57:09;;;;;;;12.13;6.60;;;12.80;50.00;;;;;;5031343;28;20433;-65
2021/10/14 06:59:34;;;;;;;15.95;7.80;;;12.70;50.00;;;;;;5030707;28;20124;-65
2021/10/14 07:02:00;;;;;;;16.55;7.47;;;12.80;50.20;;;;;;5032432;28;20034;-65
2021/10/14 07:04:26;;;;;;;15.63;7.45;;;12.80;50.50;;;;;;5030112;28;20042;-66
2021/10/14 07:06:52;;;;;;;13.02;8.25;;;12.80;50.50;;;;;;5030789;28;20068;-65
2021/10/14 07:09:17;;;;;;;13.88;7.82;;;12.80;50.70;;;;;;5030784;28;20037;-65
2021/10/14 07:11:51;;;;;;;13.45;8.27;;;12.90;50.50;;;;;;5032836;28;20372;-65
2021/10/14 07:14:16;;;;;;;11.52;8.75;;;12.90;50.90;;;;;;5031603;28;20499;-65
2021/10/14 07:16:42;;;;;;;11.85;7.95;;;12.90;51.30;;;;;;5013865;28;20058;-65
2021/10/14 07:19:08;;;;;;;14.70;9.80;;;12.80;51.60;;;;;;5031508;28;20088;-65
2021/10/14 07:21:33;;;;;;;14.50;9.27;;;12.90;51.80;;;;;;5031113;28;20065;-65
2021/10/14 07:23:59;;;;;;;14.40;9.82;;;12.80;51.80;;;;;;5032198;28;20416;-65
2021/10/14 07:26:26;;;;;;;20.58;10.32;;;12.90;52.00;;;;;;5031656;28;20399;-66
2021/10/14 07:28:51;;;;;;;16.13;10.00;;;12.90;52.10;;;;;;5032427;28;20034;-65
2021/10/14 07:31:17;;;;;;;15.68;10.25;;;13.00;52.00;;;;;;5031483;28;20052;-65
2021/10/14 07:33:43;;;;;;;21.90;11.07;;;13.00;52.00;;;;;;5029305;28;20191;-66
2021/10/14 07:36:09;;;;;;;16.65;10.63;;;13.10;51.90;;;;;;5030894;28;20188;-65
2021/10/14 07:38:35;;;;;;;16.13;10.95;;;13.10;52.00;;;;;;5030611;28;20149;-65
2021/10/14 07:41:00;;;;;;;18.17;10.40;;;13.00;51.90;;;;;;5029438;28;20052;-65
2021/10/14 07:43:26;;;;;;;17.33;10.70;;;13.00;51.90;;;;;;5030704;28;20045;-66
2021/10/14 07:45:51;;;;;;;17.20;12.73;;;13.10;51.60;;;;;;5029158;28;20056;-65
2021/10/14 07:48:17;;;;;;;16.25;11.77;;;13.10;51.50;;;;;;5014558;28;20034;-65
2021/10/14 07:50:43;;;;;;;22.05;12.70;;;13.10;51.50;;;;;;5031565;28;20063;-65
2021/10/14 07:53:14;;;;;;;23.80;12.57;;;13.20;51.30;;;;;;5012928;28;20056;-65
2021/10/14 07:55:40;;;;;;;29.80;16.05;;;13.20;51.10;;;;;;5031710;28;20044;-66
2021/10/14 07:58:05;;;;;;;20.67;14.52;;;13.10;50.90;;;;;;5034848;28;20041;-65
2021/10/14 08:00:31;;;;;;;19.50;13.75;;;13.20;51.20;;;;;;5012360;28;20088;-65
2021/10/14 08:02:56;;;;;;;26.85;13.82;;;13.20;51.10;;;;;;5035976;28;20037;-65
2021/10/14 08:05:23;;;;;;;20.95;14.63;;;13.10;51.00;;;;;;5033203;28;20068;-65
2021/10/14 08:07:48;;;;;;;19.45;13.80;;;13.20;51.30;;;;;;5036038;28;20044;-65
2021/10/14 08:10:14;;;;;;;21.73;14.23;;;13.30;51.30;;;;;;5034869;28;20034;-65
2021/10/14 08:12:40;;;;;;;23.00;15.48;;;13.30;51.10;;;;;;5035825;28;20103;-65
2021/10/14 08:15:06;;;;;;;21.25;15.20;;;13.30;51.10;;;;;;5033622;28;20038;-65
2021/10/14 08:17:32;;;;;;;16.80;12.50;;;13.30;51.30;;;;;;5017055;28;20205;-65
2021/10/14 08:19:58;;;;;;;19.23;13.93;;;13.30;51.30;;;;;;5035278;28;20030;-65
2021/10/14 08:22:23;;;;;;;22.60;13.52;;;13.40;51.40;;;;;;5033556;28;20867;-65
2021/10/14 08:24:49;;;;;;;19.80;14.27;;;13.50;51.30;;;;;;5033809;28;20116;-65
2021/10/14 08:27:14;;;;;;;18.40;13.60;;;13.50;51.40;;;;;;5037474;28;22325;-66
2021/10/14 08:29:40;;;;;;;21.77;14.18;;;13.60;51.20;;;;;;5033033;28;20042;-66
2021/10/14 08:32:06;;;;;;;17.40;12.60;;;13.60;51.30;;;;;;5034455;28;20056;-66
2021/10/14 08:34:32;;;;;;;19.45;11.75;;;13.60;51.10;;;;;;5033265;28;20163;-66
2021/10/14 08:36:57;;;;;;;16.92;12.32;;;13.60;50.60;;;;;;5033903;28;20107;-66
2021/10/14 08:39:23;;;;;;;17.48;12.73;;;13.60;50.60;;;;;;5033274;28;20041;-65
2021/10/14 08:41:50;;;;;;;16.60;10.75;;;13.70;50.70;;;;;;5032097;28;20117;-65
2021/10/14 08:44:25;;;;;;;19.50;11.40;;;13.70;50.50;;;;;;5033469;28;20044;-66
2021/10/14 08:46:52;;;;;;;16.88;11.48;;;13.70;50.60;;;;;;5012671;28;20040;-65
2021/10/14 08:49:18;;;;;;;15.57;10.50;;;13.70;50.50;;;;;;5033772;28;20088;-65
2021/10/14 08:51:44;;;;;;;13.98;10.25;;;13.80;50.20;;;;;;5031756;28;20029;-66
2021/10/14 08:54:09;;;;;;;10.70;9.15;;;13.80;50.30;;;;;;5032994;28;20073;-66
2021/10/14 08:56:40;;;;;;;15.48;10.10;;;13.80;50.10;;;;;;5032849;28;20108;-66
2021/10/14 08:59:06;;;;;;;14.88;9.02;;;13.90;50.00;;;;;;5025536;28;20065;-65
2021/10/14 09:01:31;;;;;;;14.88;9.93;;;13.90;49.70;;;;;;5032847;28;20076;-65
2021/10/14 09:04:37;;;;;;;14.40;9.30;;;13.90;49.60;;;;;;5033836;28;20369;-66
2021/10/14 09:07:13;;;;;;;15.02;9.20;;;14.00;49.70;;;;;;5030826;28;20045;-65
2021/10/14 09:09:40;;;;;;;15.30;8.43;;;14.10;49.50;;;;;;5032551;28;20045;-66
2021/10/14 09:12:07;;;;;;;11.00;7.18;;;14.00;48.60;;;;;;5035969;28;20116;-66
2021/10/14 09:14:33;;;;;;;13.23;7.32;;;14.10;48.50;;;;;;5031949;28;20073;-65
2021/10/14 09:16:59;;;;;;;9.23;7.85;;;14.10;48.00;;;;;;5030946;28;20465;-66
2021/10/14 09:19:25;;;;;;;10.02;8.15;;;14.10;48.20;;;;;;5032839;28;20137;-65
2021/10/14 09:21:56;;;;;;;11.75;8.20;;;14.20;48.50;;;;;;5032497;28;20132;-65
2021/10/14 09:24:25;;;;;;;16.17;14.52;;;14.30;47.80;;;;;;5023440;28;20033;-65
2021/10/14 09:26:51;;;;;;;14.55;11.38;;;14.30;47.20;;;;;;5014018;28;20037;-66
2021/10/14 09:29:20;;;;;;;19.30;8.85;;;14.30;47.60;;;;;;5033261;28;20474;-65
2021/10/14 09:31:56;;;;;;;9.98;7.57;;;14.40;46.90;;;;;;5031718;28;20042;-65
2021/10/14 09:34:28;;;;;;;9.45;7.35;;;14.50;46.10;;;;;;5014235;28;20182;-66
2021/10/14 09:36:55;;;;;;;11.63;8.60;;;14.50;46.50;;;;;;5031374;28;20041;-66
2021/10/14 09:39:20;;;;;;;12.15;7.93;;;14.40;46.90;;;;;;5036372;28;20037;-65
2021/10/14 09:41:46;;;;;;;12.48;7.53;;;14.50;47.20;;;;;;5031338;28;20391;-65
2021/10/14 09:44:17;;;;;;;10.50;6.95;;;14.60;47.10;;;;;;5032249;28;20041;-66
2021/10/14 09:46:52;;;;;;;10.40;8.18;;;14.60;46.30;;;;;;5030210;28;20441;-66
2021/10/14 09:49:24;;;;;;;10.77;7.32;;;14.70;46.50;;;;;;5014682;28;20392;-66
2021/10/14 09:51:51;;;;;;;10.27;7.80;;;14.70;46.50;;;;;;5031794;28;20033;-65
2021/10/14 09:54:17;;;;;;;10.98;7.38;;;14.70;46.40;;;;;;5033022;28;20053;-65
2021/10/14 09:56:42;;;;;;;11.30;7.90;;;14.70;46.20;;;;;;5029958;28;20099;-65
2021/10/14 09:59:09;;;;;;;8.95;6.97;;;14.70;45.00;;;;;;5034252;28;20372;-65
2021/10/14 10:01:38;;;;;;;9.90;6.95;;;14.70;45.40;;;;;;5032943;28;20545;-65
2021/10/14 10:04:04;;;;;;;13.95;7.57;;;14.80;45.30;;;;;;5016137;28;20132;-65
2021/10/14 10:06:33;;;;;;;13.00;7.90;;;14.90;45.30;;;;;;5032914;28;20079;-65
2021/10/14 10:09:26;;;;;;;11.05;8.98;;;14.90;45.10;;;;;;5033870;28;20042;-65
2021/10/14 10:11:55;;;;;;;15.93;9.27;;;14.90;43.80;;;;;;5024292;28;20045;-66
2021/10/14 10:14:26;;;;;;;7.68;6.50;;;15.00;43.70;;;;;;5032808;28;20042;-66
2021/10/14 10:17:00;;;;;;;12.52;10.48;;;15.00;43.50;;;;;;5029556;28;20045;-65
2021/10/14 10:19:47;;;;;;;9.00;7.47;;;15.00;44.40;;;;;;5033514;28;20037;-65
2021/10/14 10:22:35;;;;;;;12.15;8.13;;;15.10;45.10;;;;;;5030037;28;20034;-65
2021/10/14 10:25:25;;;;;;;10.90;6.40;;;14.90;45.40;;;;;;5033100;28;20040;-63
2021/10/14 10:27:57;;;;;;;7.82;6.68;;;14.90;44.80;;;;;;5017658;28;20044;-62
2021/10/14 10:30:29;;;;;;;8.88;5.97;;;15.10;45.00;;;;;;5032652;28;20034;-64
2021/10/14 10:32:55;;;;;;;6.88;6.13;;;15.10;43.00;;;;;;5013432;28;20045;-64
2021/10/14 10:35:46;;;;;;;9.70;5.07;;;15.20;44.20;;;;;;5028000;28;20029;-66
2021/10/14 10:38:25;;;;;;;9.63;4.88;;;15.20;42.60;;;;;;4995752;28;20411;-66
2021/10/14 10:40:52;;;;;;;16.92;10.35;;;15.30;42.50;;;;;;5016714;28;20033;-64
2021/10/14 10:43:26;;;;;;;9.52;5.28;;;15.10;42.10;;;;;;5020873;28;20034;-69
2021/10/14 10:45:57;;;;;;;15.25;10.27;;;15.30;43.80;;;;;;5029987;28;20036;-70
2021/10/14 10:48:25;;;;;;;7.63;5.65;;;15.40;44.20;;;;;;5030475;28;20499;-70
2021/10/14 10:50:53;;;;;;;8.82;5.18;;;15.50;44.90;;;;;;5031691;28;20104;-70
2021/10/14 10:53:35;;;;;;;9.70;5.65;;;15.60;49.00;;;;;;5032219;28;20037;-70
2021/10/14 10:56:01;;;;;;;7.45;5.35;;;15.60;48.30;;;;;;5031847;28;20112;-70
2021/10/14 10:58:44;;;;;;;6.15;4.72;;;15.70;48.10;;;;;;5031961;28;20060;-70
2021/10/14 11:01:11;;;;;;;6.72;3.50;;;15.80;46.70;;;;;;5031555;28;20030;-70
2021/10/14 11:03:37;;;;;;;5.43;3.70;;;15.80;46.60;;;;;;5032776;28;20038;-70
2021/10/14 11:06:10;;;;;;;6.95;4.85;;;15.80;48.50;;;;;;5031892;28;20130;-70
2021/10/14 11:08:36;;;;;;;8.15;5.22;;;15.90;46.70;;;;;;5032920;28;20021;-70
2021/10/14 11:11:06;;;;;;;9.10;5.95;;;16.00;48.90;;;;;;5027741;28;20379;-71
2021/10/14 11:13:40;;;;;;;7.25;5.30;;;16.00;45.90;;;;;;5026356;28;20137;-70
2021/10/14 11:16:10;;;;;;;16.83;9.68;;;16.00;45.20;;;;;;5028307;28;20140;-70
2021/10/14 11:18:37;;;;;;;27.40;10.98;;;16.10;45.80;;;;;;5032620;28;20088;-70
2021/10/14 11:21:05;;;;;;;15.68;7.75;;;16.20;47.00;;;;;;5031327;28;20029;-70
2021/10/14 11:23:36;;;;;;;8.13;5.70;;;16.30;46.30;;;;;;5031310;28;20048;-71
2021/10/14 11:26:36;;;;;;;7.00;5.07;;;16.30;46.60;;;;;;5029513;28;20040;-70
2021/10/14 11:29:19;;;;;;;6.28;4.47;;;16.30;45.60;;;;;;5032340;28;20036;-70
2021/10/14 11:31:55;;;;;;;6.10;4.20;;;16.30;46.80;;;;;;5031446;28;20037;-70
2021/10/14 11:34:23;;;;;;;6.75;4.80;;;16.20;46.50;;;;;;5036070;28;20045;-71
2021/10/14 11:36:53;;;;;;;6.30;4.90;;;16.30;47.20;;;;;;5035431;28;20107;-71
2021/10/14 11:39:40;;;;;;;6.32;4.15;;;16.60;47.60;;;;;;5035717;28;20033;-70
2021/10/14 11:42:09;;;;;;;5.57;4.78;;;16.50;46.20;;;;;;5027888;28;20033;-71
2021/10/14 11:44:36;;;;;;;6.15;4.38;;;16.40;45.60;;;;;;5027749;28;20034;-70
2021/10/14 11:47:05;;;;;;;7.40;4.10;;;16.50;46.70;;;;;;5026914;28;20037;-71
2021/10/14 11:49:31;;;;;;;8.70;4.72;;;16.60;46.90;;;;;;5019187;28;20033;-71
2021/10/14 11:52:01;;;;;;;9.88;5.63;;;16.80;50.90;;;;;;5035292;28;20124;-71
2021/10/14 11:54:30;;;;;;;11.43;4.72;;;17.20;46.20;;;;;;5035998;28;20049;-70
2021/10/14 11:56:56;;;;;;;7.38;5.07;;;17.40;39.80;;;;;;5035437;28;20037;-71
2021/10/14 11:59:23;;;;;;;6.32;4.07;;;17.60;39.10;;;;;;5036680;28;20498;-70
2021/10/14 12:01:50;;;;;;;8.05;5.25;;;17.60;38.70;;;;;;5035299;28;20044;-70
2021/10/14 12:04:19;;;;;;;5.93;4.28;;;17.50;36.20;;;;;;5036461;28;20041;-71
2021/10/14 12:06:46;;;;;;;5.57;4.32;;;17.60;36.20;;;;;;5034587;28;20140;-70
2021/10/14 12:09:16;;;;;;;7.53;4.32;;;17.80;36.00;;;;;;5035184;28;20039;-71
2021/10/14 12:11:42;;;;;;;7.43;4.22;;;17.80;34.30;;;;;;5036759;28;20128;-71
2021/10/14 12:14:08;;;;;;;7.78;4.75;;;17.80;34.80;;;;;;5033897;28;20087;-71
2021/10/14 12:16:34;;;;;;;6.78;4.20;;;17.60;34.30;;;;;;5016971;28;20053;-71
2021/10/14 12:19:17;;;;;;;6.13;4.00;;;17.50;34.60;;;;;;5034653;28;20464;-71
2021/10/14 12:21:45;;;;;;;5.82;4.32;;;17.40;34.40;;;;;;5035166;28;20403;-72
2021/10/14 12:24:21;;;;;;;10.88;4.15;;;17.30;35.70;;;;;;5034863;28;20030;-73
2021/10/14 12:26:49;;;;;;;4.32;3.60;;;17.50;35.80;;;;;;5031702;28;20048;-72
2021/10/14 12:29:30;;;;;;;4.78;3.70;;;17.90;34.00;;;;;;5034144;28;20049;-72
2021/10/14 12:32:05;;;;;;;7.97;4.22;;;17.80;33.10;;;;;;5034882;28;20438;-74
2021/10/14 12:34:47;;;;;;;7.72;4.43;;;17.70;32.60;;;;;;5035552;28;20045;-71
2021/10/14 12:37:14;;;;;;;9.18;4.68;;;17.60;31.50;;;;;;5034046;28;20033;-74
2021/10/14 12:39:41;;;;;;;6.70;4.03;;;17.60;33.30;;;;;;5034407;28;20030;-71
2021/10/14 12:42:09;;;;;;;9.65;5.00;;;17.60;33.70;;;;;;5034369;28;20034;-72